Time;durP1;ratioP1;P1;durP2;ratioP2;P2;SDS_P1;SDS_P2;PMS_P1;PMS_P2;Temp;Humidity;BMP_temperature;BMP_pressure;BME280_temperature;BME280_humidity;BME280_pressure;Samples;Min_cycle;Max_cycle;Signal;HPM_P1;HPM_P2
2021/03/29 00:02:05;;;;;;;2.96;1.17;;;;;;;5.56;70.24;100693.44;2015835;77;20864;-73
2021/03/29 00:05:07;;;;;;;1.58;0.93;;;;;;;5.53;70.23;100696.78;2017044;80;20343;-73
2021/03/29 00:08:19;;;;;;;3.29;1.13;;;;;;;5.56;70.41;100707.22;2015602;80;20335;-73
2021/03/29 00:11:23;;;;;;;4.40;0.98;;;;;;;5.55;70.46;100702.88;2017222;80;20316;-74
2021/03/29 00:14:25;;;;;;;3.70;1.00;;;;;;;5.54;70.55;100701.13;2016647;80;20347;-74
2021/03/29 00:17:27;;;;;;;2.70;1.00;;;;;;;5.56;70.71;100703.75;2014950;78;20580;-73
2021/03/29 00:20:30;;;;;;;3.74;1.33;;;;;;;5.54;71.28;100702.81;2016668;80;20320;-74
2021/03/29 00:23:34;;;;;;;4.79;1.30;;;;;;;5.54;70.81;100701.13;2017421;80;20333;-73
2021/03/29 00:26:37;;;;;;;4.31;1.24;;;;;;;5.57;70.72;100705.53;2016788;80;20346;-73
2021/03/29 00:29:39;;;;;;;3.29;1.29;;;;;;;5.57;71.15;100708.13;2016701;80;20896;-73
2021/03/29 00:32:43;;;;;;;2.45;1.20;;;;;;;5.55;71.15;100704.56;2016097;80;21251;-73
2021/03/29 00:35:47;;;;;;;2.59;1.16;;;;;;;5.56;70.84;100711.47;2020725;80;20319;-73
2021/03/29 00:38:53;;;;;;;3.21;1.25;;;;;;;5.61;71.02;100720.28;2021588;80;21030;-73
2021/03/29 00:41:56;;;;;;;4.72;0.96;;;;;;;5.61;70.56;100712.56;2022233;80;20469;-73
2021/03/29 00:44:58;;;;;;;3.88;1.05;;;;;;;5.60;70.92;100711.69;2021141;80;20915;-73
2021/03/29 00:48:00;;;;;;;3.90;1.14;;;;;;;5.59;70.89;100711.63;2021088;77;20677;-73
2021/03/29 00:51:09;;;;;;;1.59;1.10;;;;;;;5.58;70.73;100707.28;2021737;80;20328;-73
2021/03/29 00:54:12;;;;;;;3.10;1.02;;;;;;;5.56;70.76;100708.91;2022099;80;20371;-73
2021/03/29 00:57:15;;;;;;;3.84;1.15;;;;;;;5.51;70.58;100708.75;2021735;80;20308;-74
2021/03/29 01:00:23;;;;;;;4.00;1.01;;;;;;;5.46;70.54;100708.59;2020679;78;20341;-73
2021/03/29 01:03:29;;;;;;;2.61;1.14;;;;;;;5.43;71.44;100713.63;2021822;80;21355;-73
2021/03/29 01:06:36;;;;;;;3.60;1.27;;;;;;;5.38;71.67;100712.56;2025120;79;20719;-73
2021/03/29 01:09:39;;;;;;;3.38;1.20;;;;;;;5.33;71.70;100713.22;2021381;80;20489;-73
2021/03/29 01:12:42;;;;;;;4.60;1.31;;;;;;;5.27;71.90;100711.28;2021515;80;20316;-73
2021/03/29 01:15:45;;;;;;;4.19;1.29;;;;;;;5.22;71.79;100710.25;2020829;77;20527;-73
2021/03/29 01:18:55;;;;;;;2.01;1.00;;;;;;;5.18;71.73;100712.63;2022138;80;20379;-73
2021/03/29 01:22:03;;;;;;;3.70;1.19;;;;;;;5.14;71.88;100704.78;2021871;80;20342;-73
2021/03/29 01:25:10;;;;;;;3.49;1.01;;;;;;;5.09;72.28;100710.59;2021109;80;20361;-73
2021/03/29 01:28:17;;;;;;;3.70;1.34;;;;;;;5.03;72.35;100711.25;2021801;80;20335;-73
2021/03/29 01:31:19;;;;;;;2.30;1.23;;;;;;;5.03;72.03;100713.81;2020311;77;21136;-73
2021/03/29 01:34:21;;;;;;;2.66;1.30;;;;;;;5.01;72.13;100710.28;2021622;80;20464;-73
2021/03/29 01:37:24;;;;;;;4.39;1.23;;;;;;;4.98;72.31;100711.84;2021529;80;20840;-73
2021/03/29 01:40:26;;;;;;;2.13;1.09;;;;;;;4.89;72.59;100706.38;2021621;80;20324;-73
2021/03/29 01:43:29;;;;;;;4.49;1.14;;;;;;;4.81;72.56;100709.50;2021507;80;20300;-73
2021/03/29 01:46:31;;;;;;;2.29;1.15;;;;;;;4.77;72.52;100714.47;2020395;77;20305;-73
2021/03/29 01:49:33;;;;;;;6.75;2.08;;;;;;;4.70;72.55;100710.78;2016533;80;20305;-73
2021/03/29 01:52:36;;;;;;;4.18;1.23;;;;;;;4.68;72.93;100716.69;2016333;80;20727;-73
2021/03/29 01:55:40;;;;;;;3.74;1.71;;;;;;;4.62;73.37;100712.16;2015771;80;20876;-73
2021/03/29 01:58:43;;;;;;;3.99;1.38;;;;;;;4.59;73.77;100709.44;2016074;80;20345;-73
2021/03/29 02:01:46;;;;;;;2.72;1.30;;;;;;;4.55;73.88;100705.00;2019618;77;20951;-73
2021/03/29 02:04:50;;;;;;;4.15;1.50;;;;;;;4.48;74.36;100710.69;2023216;80;21019;-73
2021/03/29 02:07:52;;;;;;;3.69;1.81;;;;;;;4.40;74.78;100702.69;2022877;80;20331;-73
2021/03/29 02:10:54;;;;;;;3.16;1.20;;;;;;;4.32;74.99;100710.91;2022388;80;20300;-73
2021/03/29 02:13:57;;;;;;;1.91;1.00;;;;;;;4.24;75.13;100711.44;2022701;80;20337;-73
2021/03/29 02:16:59;;;;;;;5.65;1.48;;;;;;;4.21;74.62;100707.88;2019359;78;21881;-73
2021/03/29 02:20:02;;;;;;;2.58;1.16;;;;;;;4.20;74.35;100713.81;2013954;80;20369;-73
2021/03/29 02:23:06;;;;;;;3.25;1.41;;;;;;;4.16;74.65;100712.81;2017419;80;20372;-73
2021/03/29 02:26:09;;;;;;;4.30;1.13;;;;;;;4.12;74.66;100712.59;2018132;80;20358;-73
2021/03/29 02:29:11;;;;;;;4.95;1.13;;;;;;;4.08;74.56;100713.28;2017373;80;20321;-73
2021/03/29 02:32:13;;;;;;;2.64;1.25;;;;;;;4.01;74.24;100714.75;2020406;77;20774;-73
2021/03/29 02:35:16;;;;;;;4.16;1.30;;;;;;;3.93;74.01;100711.81;2023570;80;20348;-73
2021/03/29 02:38:18;;;;;;;1.88;1.00;;;;;;;3.86;73.80;100716.63;2023846;80;20320;-73
2021/03/29 02:41:22;;;;;;;2.35;1.34;;;;;;;3.81;73.77;100718.13;2023406;80;20346;-73
2021/03/29 02:44:24;;;;;;;2.29;1.16;;;;;;;3.72;73.83;100717.72;2023253;80;20312;-73
2021/03/29 02:47:26;;;;;;;2.86;1.20;;;;;;;3.64;73.86;100707.13;2023145;77;21540;-73
2021/03/29 02:50:30;;;;;;;3.58;1.10;;;;;;;3.58;74.05;100714.53;2023556;80;20327;-73
2021/03/29 02:53:34;;;;;;;2.99;1.05;;;;;;;3.53;74.03;100708.31;2022952;80;20359;-73
2021/03/29 02:56:39;;;;;;;3.83;1.21;;;;;;;3.53;74.33;100714.31;2023622;80;20329;-73
2021/03/29 02:59:42;;;;;;;1.66;1.15;;;;;;;3.51;74.58;100707.38;2023865;80;20312;-73
2021/03/29 03:02:44;;;;;;;4.16;1.33;;;;;;;3.42;74.49;100717.25;2022644;80;20573;-73
2021/03/29 03:05:47;;;;;;;2.13;0.81;;;;;;;3.37;74.44;100711.88;2022278;80;21102;-73
2021/03/29 03:08:48;;;;;;;4.24;1.10;;;;;;;3.33;74.42;100713.44;2022529;80;20354;-73
2021/03/29 03:11:50;;;;;;;1.83;0.95;;;;;;;3.32;74.60;100718.50;2021785;80;20437;-73
2021/03/29 03:14:53;;;;;;;3.71;0.98;;;;;;;3.32;74.91;100718.50;2022447;80;20801;-73
2021/03/29 03:17:58;;;;;;;4.25;1.23;;;;;;;3.31;75.86;100716.75;2016469;77;20342;-73
2021/03/29 03:21:00;;;;;;;3.63;0.95;;;;;;;3.26;76.29;100713.97;2016797;80;20313;-73
2021/03/29 03:24:03;;;;;;;3.47;1.00;;;;;;;3.20;76.49;100715.34;2016576;80;20432;-73
2021/03/29 03:27:10;;;;;;;5.15;1.31;;;;;;;3.17;76.22;100720.34;2016646;80;20335;-72
2021/03/29 03:30:32;;;;;;;2.56;1.02;;;;;;;3.16;75.97;100718.59;2017086;80;20705;-73
2021/03/29 03:33:34;;;;;;;2.44;1.06;;;;;;;3.11;75.78;100722.66;2021514;80;20673;-72
2021/03/29 03:36:36;;;;;;;1.10;0.80;;;;;;;3.04;75.77;100724.91;2022220;80;20281;-73
2021/03/29 03:39:40;;;;;;;5.24;1.19;;;;;;;2.96;75.49;100720.22;2021854;80;20308;-73
2021/03/29 03:42:42;;;;;;;2.61;1.19;;;;;;;2.91;75.43;100714.00;2022284;80;20338;-73
2021/03/29 03:45:48;;;;;;;4.54;0.86;;;;;;;2.92;75.88;100716.66;2020990;78;20769;-73
2021/03/29 03:48:53;;;;;;;5.56;1.00;;;;;;;2.88;76.02;100721.56;2021341;80;20332;-73
2021/03/29 03:51:55;;;;;;;2.97;1.00;;;;;;;2.84;76.00;100732.47;2023189;80;20339;-72
2021/03/29 03:54:57;;;;;;;6.50;2.01;;;;;;;2.79;75.63;100736.50;2021538;80;20398;-73
2021/03/29 03:58:00;;;;;;;3.45;1.10;;;;;;;2.75;75.73;100740.59;2021814;80;20312;-72
2021/03/29 04:01:05;;;;;;;4.00;1.00;;;;;;;2.72;76.31;100741.34;2018700;78;20746;-73
2021/03/29 04:04:07;;;;;;;4.22;1.54;;;;;;;2.69;76.53;100737.72;2016029;80;20324;-74
2021/03/29 04:07:09;;;;;;;2.83;0.91;;;;;;;2.64;77.10;100737.50;2016482;80;20335;-73
2021/03/29 04:10:17;;;;;;;3.35;1.00;;;;;;;2.59;77.10;100741.53;2016321;80;20349;-73
2021/03/29 04:13:31;;;;;;;3.17;0.94;;;;;;;2.55;77.01;100734.50;2017492;80;20337;-73
2021/03/29 04:16:33;;;;;;;3.17;1.11;;;;;;;2.55;77.12;100738.75;2017307;77;100680;-73
2021/03/29 04:19:35;;;;;;;3.42;1.42;;;;;;;2.56;77.42;100735.41;2022171;80;20179;-73
2021/03/29 04:22:37;;;;;;;2.09;1.00;;;;;;;2.56;77.71;100743.97;2021792;80;20327;-73
2021/03/29 04:25:39;;;;;;;1.99;0.91;;;;;;;2.56;77.66;100743.09;2021176;80;20323;-73
2021/03/29 04:28:41;;;;;;;1.85;0.86;;;;;;;2.49;77.30;100749.56;2022150;80;20772;-72
2021/03/29 04:31:42;;;;;;;5.30;1.05;;;;;;;2.43;77.26;100751.84;2020754;77;23679;-72
2021/03/29 04:34:44;;;;;;;3.81;1.71;;;;;;;2.37;77.10;100754.09;2018097;80;20345;-73
2021/03/29 04:37:46;;;;;;;2.06;1.00;;;;;;;2.27;76.93;100747.63;2016547;80;20320;-72
2021/03/29 04:40:47;;;;;;;4.72;0.95;;;;;;;2.26;77.37;100758.69;2016804;80;20804;-72
2021/03/29 04:43:49;;;;;;;4.72;1.30;;;;;;;2.25;77.97;100764.63;2016458;80;21020;-72
2021/03/29 04:46:51;;;;;;;3.41;0.94;;;;;;;2.21;77.79;100761.81;2015928;78;20503;-73
2021/03/29 04:49:52;;;;;;;2.63;1.00;;;;;;;2.18;77.46;100764.22;2017098;80;20753;-72
2021/03/29 04:52:54;;;;;;;2.28;1.21;;;;;;;2.16;77.45;100765.84;2016404;80;20321;-72
2021/03/29 04:55:56;;;;;;;4.15;1.17;;;;;;;2.06;77.28;100769.59;2015899;80;20325;-72
2021/03/29 04:58:57;;;;;;;4.50;1.06;;;;;;;2.03;77.41;100761.75;2016777;80;20317;-72
2021/03/29 05:01:59;;;;;;;1.58;0.90;;;;;;;2.00;77.39;100771.84;2015911;77;20312;-72
2021/03/29 05:05:00;;;;;;;1.48;0.90;;;;;;;1.93;77.28;100769.75;2017089;80;20321;-72
2021/03/29 05:08:02;;;;;;;1.95;0.99;;;;;;;1.87;77.20;100769.44;2016925;80;20382;-73
2021/03/29 05:11:07;;;;;;;1.74;0.93;;;;;;;1.84;77.37;100777.84;2016599;80;20419;-72
2021/03/29 05:14:08;;;;;;;3.33;1.26;;;;;;;1.81;77.57;100773.47;2016099;80;20322;-72
2021/03/29 05:17:11;;;;;;;2.36;0.89;;;;;;;1.77;77.21;100781.75;2015273;77;20863;-72
2021/03/29 05:20:12;;;;;;;2.24;1.01;;;;;;;1.76;77.15;100782.56;2016323;80;20363;-72
2021/03/29 05:23:14;;;;;;;2.91;1.10;;;;;;;1.77;77.11;100784.31;2016616;80;20382;-72
2021/03/29 05:26:16;;;;;;;5.61;1.29;;;;;;;1.80;77.57;100796.41;2016320;80;20313;-73
2021/03/29 05:29:17;;;;;;;2.65;1.16;;;;;;;1.83;78.00;100790.59;2016160;80;20320;-73
2021/03/29 05:32:24;;;;;;;3.88;1.20;;;;;;;1.81;78.74;100793.94;2016150;77;20337;-72
2021/03/29 05:35:26;;;;;;;3.39;1.14;;;;;;;1.79;78.90;100792.94;2019050;80;20770;-73
2021/03/29 05:38:28;;;;;;;2.24;1.02;;;;;;;1.77;78.88;100796.22;2019162;80;20350;-73
2021/03/29 05:41:30;;;;;;;2.21;1.19;;;;;;;1.77;78.75;100796.22;2019274;80;20320;-73
2021/03/29 05:44:32;;;;;;;3.65;1.16;;;;;;;1.77;78.82;100798.78;2019652;80;20325;-73
2021/03/29 05:47:35;;;;;;;2.09;1.10;;;;;;;1.79;78.94;100808.31;2013631;77;20393;-73
2021/03/29 05:50:37;;;;;;;2.60;1.00;;;;;;;1.82;78.91;100805.06;2014563;80;20864;-73
2021/03/29 05:53:38;;;;;;;2.86;0.90;;;;;;;1.84;79.04;100807.69;2014073;80;20332;-73
2021/03/29 05:56:40;;;;;;;2.56;1.44;;;;;;;1.87;78.91;100811.31;2013469;80;20313;-73
2021/03/29 05:59:42;;;;;;;2.59;1.19;;;;;;;1.93;78.83;100819.28;2014420;80;20360;-72
2021/03/29 06:02:44;;;;;;;4.60;1.20;;;;;;;2.06;79.00;100815.72;2018003;77;22335;-72
2021/03/29 06:05:46;;;;;;;4.24;1.20;;;;;;;2.13;79.37;100821.22;2019515;80;20833;-72
2021/03/29 06:08:50;;;;;;;2.75;1.01;;;;;;;2.23;79.77;100831.97;2019563;80;20308;-73
2021/03/29 06:11:52;;;;;;;3.46;1.34;;;;;;;2.35;80.04;100824.91;2023728;80;20345;-73
2021/03/29 06:15:00;;;;;;;2.33;1.16;;;;;;;2.50;80.02;100827.34;2019934;80;20352;-73
2021/03/29 06:18:19;;;;;;;4.35;1.21;;;;;;;2.62;80.00;100826.31;2019521;77;22976;-72
2021/03/29 06:21:21;;;;;;;4.34;1.19;;;;;;;2.78;80.06;100822.81;2020755;80;20327;-73
2021/03/29 06:24:23;;;;;;;3.84;1.50;;;;;;;2.94;80.01;100822.78;2019927;80;20457;-73
2021/03/29 06:27:27;;;;;;;5.22;1.63;;;;;;;3.27;79.79;100820.09;2020136;80;20320;-73
2021/03/29 06:30:37;;;;;;;3.58;1.61;;;;;;;3.88;78.67;100822.91;2018686;77;20822;-72
2021/03/29 06:33:47;;;;;;;5.03;1.55;;;;;;;4.47;76.78;100828.13;2018065;80;20338;-73
2021/03/29 06:36:48;;;;;;;5.06;1.45;;;;;;;5.09;74.71;100835.03;2014278;80;20325;-74
2021/03/29 06:39:50;;;;;;;2.90;1.69;;;;;;;5.72;72.87;100832.34;2015118;80;20331;-73
2021/03/29 06:42:52;;;;;;;4.68;1.70;;;;;;;6.32;70.83;100835.47;2012907;80;20339;-73
2021/03/29 06:46:01;;;;;;;2.84;1.55;;;;;;;6.74;69.00;100833.50;2013034;77;20359;-74
2021/03/29 06:49:02;;;;;;;4.28;1.52;;;;;;;7.13;67.45;100833.06;2015632;80;20341;-72
2021/03/29 06:52:23;;;;;;;4.00;1.64;;;;;;;7.41;66.67;100837.44;2014751;80;20946;-72
2021/03/29 06:55:26;;;;;;;3.06;1.88;;;;;;;7.75;65.11;100832.47;2014676;80;20893;-72
2021/03/29 06:58:28;;;;;;;4.15;1.77;;;;;;;7.97;64.43;100841.75;2014650;80;20342;-73
2021/03/29 07:01:32;;;;;;;3.78;1.83;;;;;;;7.99;64.12;100841.78;2013541;77;21159;-73
2021/03/29 07:04:36;;;;;;;3.49;1.86;;;;;;;8.18;63.93;100839.75;2014118;80;20309;-73
2021/03/29 07:07:39;;;;;;;5.71;2.20;;;;;;;8.41;63.12;100837.84;2014198;80;20301;-76
2021/03/29 07:10:41;;;;;;;6.21;2.19;;;;;;;8.55;62.68;100842.53;2015283;80;20800;-76
2021/03/29 07:13:43;;;;;;;3.90;2.08;;;;;;;8.77;62.03;100847.44;2014393;80;20211;-75
2021/03/29 07:16:46;;;;;;;4.64;2.42;;;;;;;9.04;61.06;100847.28;2014873;77;21211;-75
2021/03/29 07:19:49;;;;;;;6.43;2.50;;;;;;;9.38;60.46;100849.88;2013745;80;20172;-73
2021/03/29 07:22:54;;;;;;;4.15;1.98;;;;;;;9.77;59.81;100848.16;2014559;80;20167;-73
2021/03/29 07:25:56;;;;;;;6.14;2.09;;;;;;;10.15;57.41;100857.63;2014292;80;20187;-74
2021/03/29 07:29:06;;;;;;;3.67;1.54;;;;;;;10.49;56.68;100856.63;2014260;80;20187;-73
2021/03/29 07:32:33;;;;;;;5.14;1.81;;;;;;;10.83;55.43;100844.25;2014403;78;24905;-72
2021/03/29 07:35:50;;;;;;;4.16;1.73;;;;;;;11.17;53.66;100850.91;2015259;80;20201;-77
2021/03/29 07:38:55;;;;;;;6.40;1.91;;;;;;;11.56;53.20;100853.28;2014691;80;21310;-75
2021/03/29 07:42:36;;;;;;;6.11;2.01;;;;;;;11.91;52.37;100855.53;2014736;80;20160;-75
2021/03/29 07:45:37;;;;;;;5.00;1.84;;;;;;;12.18;50.53;100853.28;2013862;77;22824;-73
2021/03/29 07:48:41;;;;;;;5.66;2.15;;;;;;;12.42;49.97;100855.31;2014159;80;21318;-73
2021/03/29 07:51:43;;;;;;;5.69;2.05;;;;;;;12.61;48.95;100859.88;2014662;80;20236;-74
2021/03/29 07:54:52;;;;;;;6.85;2.30;;;;;;;12.77;48.67;100858.31;2014478;80;20192;-73
2021/03/29 07:57:57;;;;;;;6.79;2.03;;;;;;;12.81;47.07;100857.47;2014484;80;20195;-74
2021/03/29 08:01:01;;;;;;;7.25;1.96;;;;;;;13.07;47.31;100862.94;2014159;77;20768;-74
2021/03/29 08:04:02;;;;;;;5.82;1.98;;;;;;;13.14;45.72;100863.88;2014160;80;20180;-73
2021/03/29 08:07:04;;;;;;;2.92;1.63;;;;;;;13.47;46.11;100868.53;2013491;80;20225;-74
2021/03/29 08:10:08;;;;;;;5.81;1.96;;;;;;;13.58;45.17;100874.69;2013625;80;20205;-74
2021/03/29 08:13:10;;;;;;;6.91;2.16;;;;;;;13.94;45.84;100871.44;2014105;80;20187;-74
2021/03/29 08:16:17;;;;;;;7.18;1.81;;;;;;;14.26;45.90;100869.00;2013490;78;25185;-74
2021/03/29 08:19:21;;;;;;;6.64;2.04;;;;;;;14.33;43.88;100870.75;2014302;80;20187;-74
2021/03/29 08:22:22;;;;;;;5.72;2.22;;;;;;;14.46;43.39;100875.22;2014157;80;20970;-74
2021/03/29 08:25:30;;;;;;;6.95;1.88;;;;;;;14.78;44.10;100867.47;2013933;80;20991;-74
2021/03/29 08:29:06;;;;;;;4.84;1.86;;;;;;;15.01;42.70;100867.50;2014399;80;20216;-74
2021/03/29 08:32:17;;;;;;;4.41;1.60;;;;;;;15.33;41.81;100871.88;2013408;77;20530;-74
2021/03/29 08:35:22;;;;;;;6.49;1.77;;;;;;;15.51;42.39;100871.88;2019437;80;21043;-74
2021/03/29 08:38:24;;;;;;;3.95;2.01;;;;;;;15.71;41.26;100871.88;2020119;80;21296;-74
2021/03/29 08:41:26;;;;;;;5.29;1.60;;;;;;;15.87;39.89;100876.22;2019488;80;20175;-74
2021/03/29 08:44:28;;;;;;;9.51;1.90;;;;;;;15.93;40.76;100884.03;2019641;80;20197;-74
2021/03/29 08:47:30;;;;;;;7.71;1.64;;;;;;;16.13;40.36;100872.63;2018876;77;20850;-71
2021/03/29 08:50:35;;;;;;;6.91;1.44;;;;;;;16.50;40.72;100871.59;2019270;80;20198;-71
2021/03/29 08:53:37;;;;;;;5.28;1.67;;;;;;;16.66;40.73;100869.78;2019589;80;20405;-70
2021/03/29 08:56:40;;;;;;;3.81;1.54;;;;;;;16.95;39.91;100879.28;2020168;80;20196;-70
2021/03/29 08:59:41;;;;;;;4.18;1.35;;;;;;;16.99;38.83;100873.97;2019404;80;20651;-71
2021/03/29 09:02:43;;;;;;;4.20;1.71;;;;;;;17.09;38.46;100877.44;2018639;77;20972;-71
2021/03/29 09:05:45;;;;;;;6.31;1.70;;;;;;;17.30;37.58;100874.63;2019717;80;20183;-71
2021/03/29 09:08:47;;;;;;;5.00;1.29;;;;;;;17.53;37.13;100877.06;2020683;80;20670;-71
2021/03/29 09:11:50;;;;;;;4.43;1.41;;;;;;;17.64;36.31;100877.84;2019640;80;20175;-73
2021/03/29 09:14:53;;;;;;;5.91;1.27;;;;;;;17.88;36.56;100876.75;2020109;80;20688;-71
2021/03/29 09:17:58;;;;;;;7.07;1.30;;;;;;;18.11;37.12;100874.72;2019875;80;23776;-71
2021/03/29 09:21:00;;;;;;;4.57;1.04;;;;;;;18.16;35.51;100889.59;2019559;80;20171;-71
2021/03/29 09:24:23;;;;;;;4.46;0.90;;;;;;;18.44;35.23;100883.09;2019752;80;20191;-74
2021/03/29 09:27:37;;;;;;;4.20;1.11;;;;;;;18.57;33.82;100876.81;2020334;80;20244;-75
2021/03/29 09:30:40;;;;;;;2.80;1.10;;;;;;;18.65;33.04;100884.63;2019239;77;38272;-74
2021/03/29 09:33:42;;;;;;;7.65;1.70;;;;;;;18.87;33.76;100887.84;2017874;80;20207;-74
2021/03/29 09:36:47;;;;;;;5.31;1.50;;;;;;;18.95;33.03;100897.34;2014572;80;20235;-72
2021/03/29 09:39:56;;;;;;;2.51;0.90;;;;;;;19.08;33.82;100887.53;2015012;80;20307;-73
2021/03/29 09:42:58;;;;;;;4.90;1.40;;;;;;;19.35;34.18;100886.19;2014492;80;20220;-71
2021/03/29 09:46:04;;;;;;;2.63;1.17;;;;;;;19.47;33.91;100890.41;2014186;77;20278;-71
2021/03/29 09:49:09;;;;;;;4.91;1.40;;;;;;;19.52;34.11;100888.56;2014046;80;20201;-75
2021/03/29 09:52:11;;;;;;;4.36;1.25;;;;;;;19.66;34.29;100891.00;2015076;80;20168;-74
2021/03/29 09:55:14;;;;;;;4.31;1.10;;;;;;;19.82;33.90;100887.19;2015117;80;20321;-74
2021/03/29 09:58:23;;;;;;;4.29;1.05;;;;;;;20.00;33.70;100889.47;2014247;80;20273;-70
2021/03/29 10:01:26;;;;;;;4.75;1.20;;;;;;;20.14;33.10;100891.84;2014626;77;20707;-70
2021/03/29 10:04:28;;;;;;;3.39;1.16;;;;;;;20.29;31.62;100886.28;2013853;80;20415;-70
2021/03/29 10:07:29;;;;;;;3.83;1.23;;;;;;;20.44;32.15;100885.97;2015247;80;20201;-71
2021/03/29 10:10:31;;;;;;;3.39;0.90;;;;;;;20.62;32.57;100894.41;2014289;80;20183;-70
2021/03/29 10:13:36;;;;;;;4.30;1.29;;;;;;;20.79;30.95;100889.63;2014089;80;20223;-75
2021/03/29 10:16:46;;;;;;;2.99;0.90;;;;;;;20.78;31.55;100883.47;2013852;77;20183;-75
2021/03/29 10:19:48;;;;;;;5.15;1.17;;;;;;;20.80;29.65;100876.38;2014535;80;20180;-74
2021/03/29 10:22:50;;;;;;;4.89;1.13;;;;;;;20.97;30.51;100878.63;2014921;80;20313;-75
2021/03/29 10:26:19;;;;;;;4.15;1.01;;;;;;;21.06;30.03;100875.81;2014315;80;21152;-75
2021/03/29 10:29:47;;;;;;;4.59;0.90;;;;;;;21.04;30.82;100882.03;2014496;80;20931;-75
2021/03/29 10:32:51;;;;;;;3.87;0.90;;;;;;;21.06;29.84;100875.81;2013269;77;20206;-74
2021/03/29 10:35:52;;;;;;;4.56;0.95;;;;;;;21.27;27.34;100877.09;2019552;80;20195;-75
2021/03/29 10:38:56;;;;;;;5.93;1.02;;;;;;;20.98;28.62;100875.09;2016429;80;20187;-75
2021/03/29 10:41:57;;;;;;;5.35;1.00;;;;;;;21.18;30.14;100871.09;2020059;80;20190;-75
2021/03/29 10:44:59;;;;;;;3.58;0.95;;;;;;;21.44;30.29;100867.88;2019660;80;20191;-75
2021/03/29 10:48:01;;;;;;;6.41;0.94;;;;;;;21.59;30.59;100873.63;2018365;77;29265;-75
2021/03/29 10:51:05;;;;;;;2.09;0.91;;;;;;;21.88;27.68;100864.03;2020091;80;20203;-75
2021/03/29 10:54:06;;;;;;;5.47;0.84;;;;;;;22.11;27.64;100858.16;2019938;80;20190;-75
2021/03/29 10:57:09;;;;;;;2.14;0.79;;;;;;;21.89;25.75;100864.00;2020298;80;20212;-75
2021/03/29 11:00:11;;;;;;;4.72;0.81;;;;;;;21.83;25.89;100858.03;2020419;80;21016;-74
2021/03/29 11:03:13;;;;;;;2.86;0.81;;;;;;;22.08;26.44;100861.75;2020126;78;21319;-76
2021/03/29 11:06:14;;;;;;;3.58;0.90;;;;;;;22.18;24.26;100851.78;2020783;80;21058;-79
2021/03/29 11:09:16;;;;;;;3.65;0.80;;;;;;;22.08;24.99;100858.22;2022173;80;20244;-74
2021/03/29 11:12:18;;;;;;;2.67;0.80;;;;;;;22.04;25.37;100852.13;2021329;80;20225;-75
2021/03/29 11:15:19;;;;;;;3.35;0.90;;;;;;;22.03;25.68;100847.75;2018709;78;21613;-75
2021/03/29 11:18:21;;;;;;;3.24;1.00;;;;;;;22.39;26.45;100843.19;2020476;80;20217;-75
2021/03/29 11:21:23;;;;;;;3.97;0.80;;;;;;;22.51;25.01;100845.50;2020687;80;20211;-76
2021/03/29 11:24:25;;;;;;;5.21;0.90;;;;;;;22.60;23.88;100839.03;2020396;80;20779;-75
2021/03/29 11:27:27;;;;;;;2.89;1.09;;;;;;;22.36;26.42;100845.09;2020079;80;20160;-76
2021/03/29 11:30:28;;;;;;;2.50;1.19;;;;;;;22.34;27.45;100833.69;2019761;77;23862;-75
2021/03/29 11:33:31;;;;;;;2.79;0.95;;;;;;;22.49;27.70;100838.53;2018633;80;20183;-74
2021/03/29 11:36:33;;;;;;;3.22;0.82;;;;;;;22.60;27.35;100836.38;2015031;80;21428;-75
2021/03/29 11:39:35;;;;;;;4.59;0.80;;;;;;;22.76;27.17;100831.50;2014509;80;20176;-75
2021/03/29 11:42:37;;;;;;;4.88;0.73;;;;;;;22.96;26.55;100831.75;2014937;80;20203;-75
2021/03/29 11:45:39;;;;;;;5.24;0.85;;;;;;;23.03;25.07;100827.13;2014037;78;29203;-75
2021/03/29 11:48:41;;;;;;;3.53;0.90;;;;;;;23.07;25.31;100826.09;2015176;80;20818;-75
2021/03/29 11:51:43;;;;;;;3.70;1.20;;;;;;;23.29;24.33;100829.78;2014736;80;20208;-75
2021/03/29 11:54:45;;;;;;;2.63;1.00;;;;;;;23.38;23.70;100824.19;2014799;80;20179;-75
2021/03/29 11:57:46;;;;;;;3.01;0.86;;;;;;;23.29;23.93;100819.16;2014656;80;20200;-76
2021/03/29 12:00:52;;;;;;;8.06;1.16;;;;;;;23.28;23.81;100827.19;2014040;80;25669;-76
2021/03/29 12:03:58;;;;;;;2.97;0.79;;;;;;;23.26;24.73;100826.38;2017816;80;20218;-76
2021/03/29 12:07:15;;;;;;;3.79;0.90;;;;;;;23.44;24.83;100820.44;2014989;80;20576;-76
2021/03/29 12:13:38;;;;;;;2.71;0.80;;;;;;;23.77;25.09;100813.13;2015145;80;20245;-77
2021/03/29 12:16:43;;;;;;;2.39;1.23;;;;;;;23.79;24.07;100808.63;2012550;78;21449;-77
2021/03/29 12:19:45;;;;;;;2.66;0.91;;;;;;;23.58;22.38;100818.22;2015715;80;20184;-77
2021/03/29 12:22:48;;;;;;;3.03;0.70;;;;;;;23.42;22.86;100809.88;2015147;80;20155;-77
2021/03/29 12:25:51;;;;;;;5.63;0.94;;;;;;;23.37;23.90;100806.53;2015590;80;20345;-77
2021/03/29 12:28:54;;;;;;;3.00;1.00;;;;;;;23.71;24.23;100810.69;2016229;80;20205;-77
2021/03/29 12:31:56;;;;;;;2.35;0.80;;;;;;;23.85;23.09;100813.69;2014235;77;20306;-77
2021/03/29 12:34:59;;;;;;;4.24;1.06;;;;;;;23.77;23.32;100805.16;2018588;80;20670;-77
2021/03/29 12:38:02;;;;;;;4.55;0.86;;;;;;;23.85;23.63;100808.38;2020567;80;20171;-77
2021/03/29 12:41:07;;;;;;;2.08;0.80;;;;;;;23.80;22.88;100805.91;2021022;80;20194;-76
2021/03/29 12:44:17;;;;;;;2.59;0.80;;;;;;;23.74;22.15;100808.78;2020839;80;20207;-76
2021/03/29 12:47:24;;;;;;;3.31;0.80;;;;;;;23.42;21.92;100793.97;2014970;77;20492;-73
2021/03/29 12:50:27;;;;;;;4.39;0.90;;;;;;;23.45;23.58;100787.69;2015106;80;20152;-77
2021/03/29 12:53:29;;;;;;;3.96;0.90;;;;;;;23.49;23.87;100787.53;2016605;80;20213;-76
2021/03/29 12:56:31;;;;;;;3.70;1.00;;;;;;;23.54;23.65;100782.09;2016020;80;20183;-77
2021/03/29 12:59:34;;;;;;;2.49;0.90;;;;;;;23.83;23.12;100788.13;2016774;80;20217;-77
2021/03/29 13:02:36;;;;;;;3.91;0.90;;;;;;;23.81;21.62;100783.75;2019754;77;20196;-76
2021/03/29 13:05:49;;;;;;;5.41;0.95;;;;;;;23.64;22.96;100778.19;2021224;80;20175;-77
2021/03/29 13:08:51;;;;;;;2.49;0.90;;;;;;;23.64;22.46;100774.69;2022967;80;20179;-76
2021/03/29 13:11:56;;;;;;;2.69;1.36;;;;;;;23.76;22.82;100780.41;2023525;80;20175;-76
2021/03/29 13:15:07;;;;;;;2.83;0.89;;;;;;;23.71;22.59;100771.78;2022414;80;20183;-77
2021/03/29 13:18:15;;;;;;;2.09;0.70;;;;;;;23.76;23.07;100760.97;2017304;77;20621;-77
2021/03/29 13:21:17;;;;;;;3.06;1.01;;;;;;;23.91;22.76;100767.50;2017501;80;20794;-74
2021/03/29 13:24:19;;;;;;;2.89;0.74;;;;;;;23.88;22.17;100757.88;2016646;80;20255;-74
2021/03/29 13:27:21;;;;;;;3.15;0.73;;;;;;;24.13;22.69;100760.47;2017640;80;20193;-74
2021/03/29 13:30:25;;;;;;;3.91;0.80;;;;;;;24.32;22.06;100758.84;2017202;80;20201;-75
2021/03/29 13:33:26;;;;;;;4.13;1.11;;;;;;;24.41;20.11;100754.97;2021948;80;20179;-74
2021/03/29 13:36:31;;;;;;;2.22;0.71;;;;;;;24.41;20.13;100752.31;2021781;80;20232;-73
2021/03/29 13:39:36;;;;;;;3.76;0.60;;;;;;;24.33;19.68;100744.66;2023299;80;20251;-83
2021/03/29 13:42:38;;;;;;;3.17;0.76;;;;;;;24.33;20.44;100751.75;2023949;80;20750;-77
2021/03/29 13:45:39;;;;;;;1.76;0.70;;;;;;;24.30;20.60;100741.25;2022671;77;21381;-74
2021/03/29 13:48:41;;;;;;;3.42;0.88;;;;;;;24.36;21.76;100748.97;2022886;80;20652;-75
2021/03/29 13:51:44;;;;;;;3.09;0.93;;;;;;;24.30;21.96;100739.47;2020881;80;20212;-71
2021/03/29 13:54:47;;;;;;;3.56;0.82;;;;;;;24.37;21.87;100729.47;2020825;80;20179;-71
2021/03/29 13:57:50;;;;;;;2.39;0.80;;;;;;;24.40;22.75;100738.16;2020394;80;20171;-76
2021/03/29 14:00:54;;;;;;;2.16;1.00;;;;;;;24.27;21.00;100730.75;2019865;77;75803;-77
2021/03/29 14:03:56;;;;;;;3.91;0.70;;;;;;;24.02;21.64;100730.81;2021210;80;20186;-76
2021/03/29 14:06:57;;;;;;;2.00;0.59;;;;;;;24.02;22.08;100725.50;2021020;80;20228;-81
2021/03/29 14:09:59;;;;;;;2.05;0.60;;;;;;;24.03;21.35;100727.22;2030091;80;20340;-80
2021/03/29 14:13:01;;;;;;;1.86;0.68;;;;;;;24.07;18.83;100723.56;2027081;80;20196;-81
2021/03/29 14:16:04;;;;;;;2.71;0.60;;;;;;;23.96;19.20;100729.25;2025208;78;20907;-81
2021/03/29 14:19:07;;;;;;;0.93;0.60;;;;;;;24.17;20.18;100719.59;2023881;80;20189;-81
2021/03/29 14:22:09;;;;;;;2.84;1.01;;;;;;;24.00;18.60;100722.03;2020651;80;20237;-81
2021/03/29 14:25:17;;;;;;;2.92;0.60;;;;;;;24.07;19.42;100718.25;2020290;80;20172;-82